Time;durP1;ratioP1;P1;durP2;ratioP2;P2;SDS_P1;SDS_P2;PMS_P1;PMS_P2;Temp;Humidity;BMP_temperature;BMP_pressure;BME280_temperature;BME280_humidity;BME280_pressure;Samples;Min_cycle;Max_cycle;Signal;HPM_P1;HPM_P2
2022/11/18 00:02:27;;;;;;;;;;;;;;;25.10;45.01;92532.47;5031115;28;9031;-61
2022/11/18 00:04:55;;;;;;;;;;;;;;;25.08;44.97;92545.31;5048503;28;7043;-61
2022/11/18 00:07:22;;;;;;;;;;;;;;;25.09;45.22;92541.28;5061546;28;7054;-61
2022/11/18 00:10:19;;;;;;;;;;;;;;;25.10;45.81;92559.25;5048140;28;7232;-61
2022/11/18 00:15:40;;;;;;;;;;;;;;;25.08;45.97;92557.03;5018894;28;8824;-61
2022/11/18 00:18:31;;;;;;;;;;;;;;;25.08;45.17;92562.53;5022662;28;7215;-61
2022/11/18 00:21:08;;;;;;;;;;;;;;;25.08;45.43;92568.03;5014900;28;7278;-61
2022/11/18 00:23:36;;;;;;;;;;;;;;;25.07;45.98;92563.84;5000255;28;9087;-61
2022/11/18 00:26:35;;;;;;;;;;;;;;;25.07;45.32;92557.59;5015033;28;7442;-61
2022/11/18 00:29:15;;;;;;;;;;;;;;;25.08;45.55;92562.53;4932850;29;9267;-61
2022/11/18 00:31:42;;;;;;;;;;;;;;;25.08;45.18;92557.03;4931668;29;8835;-61
2022/11/18 00:34:25;;;;;;;;;;;;;;;25.09;46.10;92571.53;4933928;29;7228;-61
2022/11/18 00:36:58;;;;;;;;;;;;;;;25.08;45.79;92573.53;4934020;29;8242;-61
2022/11/18 00:39:29;;;;;;;;;;;;;;;25.08;45.63;92583.81;4933995;29;7407;-61
2022/11/18 00:44:49;;;;;;;;;;;;;;;25.07;45.59;92576.84;4929381;29;7363;-61
2022/11/18 00:47:21;;;;;;;;;;;;;;;25.07;45.73;92594.09;4881065;29;7246;-61
2022/11/18 00:49:58;;;;;;;;;;;;;;;25.07;45.92;92601.63;4948257;28;7217;-61
2022/11/18 00:52:39;;;;;;;;;;;;;;;25.06;46.23;92591.88;4934083;28;7943;-61
2022/11/18 00:55:11;;;;;;;;;;;;;;;25.07;46.15;92607.84;4968284;28;7059;-61
2022/11/18 00:57:54;;;;;;;;;;;;;;;25.04;45.62;92608.94;4952974;28;7179;-61
2022/11/18 01:00:31;;;;;;;;;;;;;;;25.04;45.36;92639.19;4952873;28;8205;-61
2022/11/18 01:03:18;;;;;;;;;;;;;;;25.06;45.74;92650.38;4947867;28;7247;-61
2022/11/18 01:06:11;;;;;;;;;;;;;;;25.06;46.14;92663.41;5046761;28;7416;-61
2022/11/18 01:08:52;;;;;;;;;;;;;;;25.03;45.94;92651.50;5025252;28;6984;-61
2022/11/18 01:14:28;;;;;;;;;;;;;;;25.06;45.44;92672.41;5045010;28;7289;-61
2022/11/18 01:17:01;;;;;;;;;;;;;;;25.08;46.02;92677.34;5035428;28;7128;-61
2022/11/18 01:19:38;;;;;;;;;;;;;;;25.09;46.17;92689.81;5027498;28;6864;-61
2022/11/18 01:22:06;;;;;;;;;;;;;;;25.08;45.95;92696.59;5045662;28;8331;-61
2022/11/18 01:24:35;;;;;;;;;;;;;;;25.06;46.15;92702.66;5025449;28;7275;-61
2022/11/18 01:27:14;;;;;;;;;;;;;;;25.05;45.61;92708.72;5024184;28;7245;-61
2022/11/18 01:29:50;;;;;;;;;;;;;;;25.06;45.87;92718.41;5047185;28;8171;-61
2022/11/18 01:32:20;;;;;;;;;;;;;;;25.07;45.64;92664.88;5032597;28;7165;-61
2022/11/18 01:35:01;;;;;;;;;;;;;;;25.07;45.32;92673.13;5033630;28;7860;-61
2022/11/18 01:37:41;;;;;;;;;;;;;;;25.05;45.82;92676.44;5059429;28;7446;-61
2022/11/18 01:40:19;;;;;;;;;;;;;;;25.05;46.21;92687.44;5034716;28;7568;-61
2022/11/18 01:43:45;;;;;;;;;;;;;;;25.06;46.09;92680.66;5052438;28;7382;-61
2022/11/18 01:46:11;;;;;;;;;;;;;;;25.04;45.82;92687.97;4990123;28;7028;-61
2022/11/18 01:48:41;;;;;;;;;;;;;;;25.04;46.29;92690.72;5033924;28;7098;-61
2022/11/18 01:51:15;;;;;;;;;;;;;;;25.04;45.99;92690.72;5033506;28;9031;-61
2022/11/18 01:53:59;;;;;;;;;;;;;;;25.04;46.57;92685.22;5035373;28;9236;-61
2022/11/18 01:56:51;;;;;;;;;;;;;;;25.03;46.30;92681.03;5033528;28;9771;-60
2022/11/18 01:59:37;;;;;;;;;;;;;;;25.01;45.59;92675.34;5024617;28;7128;-61
2022/11/18 02:02:13;;;;;;;;;;;;;;;24.98;45.61;92690.16;5046382;28;7383;-61
2022/11/18 02:04:55;;;;;;;;;;;;;;;25.01;45.68;92694.59;5057138;28;7150;-61
2022/11/18 02:07:33;;;;;;;;;;;;;;;25.02;46.18;92701.53;5065484;28;7053;-61
2022/11/18 02:10:20;;;;;;;;;;;;;;;25.01;46.27;92700.81;5044159;28;7592;-61
2022/11/18 02:13:02;;;;;;;;;;;;;;;25.01;46.34;92697.34;4996226;28;8382;-61
2022/11/18 02:15:56;;;;;;;;;;;;;;;25.01;45.72;92695.31;4987939;28;7257;-61
2022/11/18 02:19:03;;;;;;;;;;;;;;;25.02;46.42;92699.53;4986678;28;7268;-61
2022/11/18 02:22:02;;;;;;;;;;;;;;;25.01;46.08;92702.84;4978020;28;7986;-61
2022/11/18 02:25:06;;;;;;;;;;;;;;;25.01;45.74;92711.81;4987146;28;7034;-61
2022/11/18 02:27:57;;;;;;;;;;;;;;;25.03;45.90;92714.03;4982761;28;9783;-61
2022/11/18 02:30:33;;;;;;;;;;;;;;;25.02;46.10;92702.28;5001689;28;7019;-61
2022/11/18 02:33:22;;;;;;;;;;;;;;;25.01;46.18;92705.59;5002810;28;7603;-61
2022/11/18 02:36:19;;;;;;;;;;;;;;;25.01;46.08;92713.84;4986658;28;8732;-61
2022/11/18 02:39:20;;;;;;;;;;;;;;;24.97;46.15;92705.94;5054665;28;7577;-61
2022/11/18 02:41:58;;;;;;;;;;;;;;;24.97;46.29;92700.44;5031022;28;7868;-61
2022/11/18 02:44:56;;;;;;;;;;;;;;;24.98;45.99;92695.66;5048282;28;7481;-61
2022/11/18 02:47:34;;;;;;;;;;;;;;;24.99;45.70;92702.66;5031916;28;7030;-61
2022/11/18 02:50:18;;;;;;;;;;;;;;;24.98;46.22;92693.66;5054122;28;7109;-61
2022/11/18 02:52:58;;;;;;;;;;;;;;;24.97;46.23;92694.94;5031913;28;8950;-61
2022/11/18 02:55:36;;;;;;;;;;;;;;;24.98;46.34;92696.41;5016390;28;7187;-61
2022/11/18 02:58:14;;;;;;;;;;;;;;;24.95;46.05;92692.00;5032510;28;8345;-61
2022/11/18 03:00:54;;;;;;;;;;;;;;;24.99;46.49;92697.16;5030106;28;7131;-62
2022/11/18 03:03:29;;;;;;;;;;;;;;;24.98;45.44;92693.66;5025614;28;7303;-61
2022/11/18 03:06:29;;;;;;;;;;;;;;;24.99;46.11;92708.16;5030769;28;7262;-61
2022/11/18 03:09:23;;;;;;;;;;;;;;;24.98;45.50;92707.41;5025605;28;7381;-61
2022/11/18 03:12:23;;;;;;;;;;;;;;;24.97;45.79;92716.94;5033406;28;7458;-61
2022/11/18 03:15:14;;;;;;;;;;;;;;;24.98;46.28;92718.41;5026046;28;7284;-61
2022/11/18 03:18:14;;;;;;;;;;;;;;;24.94;45.91;92718.03;5058669;28;9399;-61
2022/11/18 03:20:55;;;;;;;;;;;;;;;24.92;46.61;92717.13;5053066;28;7354;-61
2022/11/18 03:23:40;;;;;;;;;;;;;;;24.90;46.50;92723.16;5023316;28;7370;-61
2022/11/18 03:26:37;;;;;;;;;;;;;;;24.89;46.28;92718.94;5025607;28;7061;-61
2022/11/18 03:29:28;;;;;;;;;;;;;;;24.90;46.52;92717.66;5019547;28;7501;-60
2022/11/18 03:32:09;;;;;;;;;;;;;;;24.89;46.37;92723.69;5057379;28;7176;-60
2022/11/18 03:34:54;;;;;;;;;;;;;;;24.91;46.42;92734.88;5039943;28;7875;-60
2022/11/18 03:37:33;;;;;;;;;;;;;;;24.90;46.26;92733.44;5032716;28;7192;-60
2022/11/18 03:40:30;;;;;;;;;;;;;;;24.92;45.89;92720.59;5049408;28;7323;-61
2022/11/18 03:43:20;;;;;;;;;;;;;;;24.90;46.15;92739.66;5030258;28;9294;-61
2022/11/18 03:46:12;;;;;;;;;;;;;;;24.95;46.20;92735.25;5027714;28;9181;-61
2022/11/18 03:48:46;;;;;;;;;;;;;;;24.95;46.32;92743.50;5025550;28;9271;-61
2022/11/18 03:51:42;;;;;;;;;;;;;;;24.93;45.98;92746.06;5032932;28;7204;-61
2022/11/18 03:54:35;;;;;;;;;;;;;;;24.94;46.10;92747.56;5014513;28;7042;-61
2022/11/18 03:57:24;;;;;;;;;;;;;;;24.94;45.60;92747.56;5041012;28;7385;-61
2022/11/18 04:00:16;;;;;;;;;;;;;;;24.93;45.82;92751.56;5032106;28;7567;-61
2022/11/18 04:02:52;;;;;;;;;;;;;;;24.95;45.85;92752.50;5047631;28;7577;-61
2022/11/18 04:05:38;;;;;;;;;;;;;;;24.95;45.64;92755.25;5031778;28;7230;-60
2022/11/18 04:08:22;;;;;;;;;;;;;;;24.94;46.31;92764.06;5022679;28;7348;-61
2022/11/18 04:14:17;;;;;;;;;;;;;;;24.93;45.68;92774.31;5041798;28;7104;-61
2022/11/18 04:16:52;;;;;;;;;;;;;;;24.92;45.86;92763.88;5016382;28;7394;-61
2022/11/18 04:20:01;;;;;;;;;;;;;;;24.94;46.40;92766.81;5036364;28;7242;-61
2022/11/18 04:22:44;;;;;;;;;;;;;;;24.96;46.46;92770.47;4992166;28;7035;-61
2022/11/18 04:25:16;;;;;;;;;;;;;;;24.95;46.01;92765.50;5008887;28;7531;-61
2022/11/18 04:27:42;;;;;;;;;;;;;;;24.95;46.02;92768.25;4981032;28;7341;-61
2022/11/18 04:30:14;;;;;;;;;;;;;;;24.95;46.46;92771.75;4991245;28;8967;-61
2022/11/18 04:32:49;;;;;;;;;;;;;;;24.96;46.23;92778.00;5011038;28;8695;-61
2022/11/18 04:35:24;;;;;;;;;;;;;;;24.96;45.80;92772.50;5001926;28;7136;-61
2022/11/18 04:38:01;;;;;;;;;;;;;;;24.94;46.20;92773.03;4989480;28;8254;-61
2022/11/18 04:40:29;;;;;;;;;;;;;;;24.91;46.09;92778.88;4978216;28;9147;-61
2022/11/18 04:43:22;;;;;;;;;;;;;;;24.90;46.18;92788.44;5002442;28;7239;-61
2022/11/18 04:45:48;;;;;;;;;;;;;;;24.90;45.91;92782.94;5002214;28;7316;-61
2022/11/18 04:48:14;;;;;;;;;;;;;;;24.90;46.33;92791.19;4993488;28;7445;-61
2022/11/18 04:50:45;;;;;;;;;;;;;;;24.90;45.97;92780.91;4993728;28;9430;-60
2022/11/18 04:53:18;;;;;;;;;;;;;;;24.92;46.60;92783.13;5030015;28;7187;-60
2022/11/18 04:55:46;;;;;;;;;;;;;;;24.87;46.18;92789.50;5062362;28;7263;-61
2022/11/18 04:58:13;;;;;;;;;;;;;;;24.87;46.30;92787.50;5027633;28;7281;-60
2022/11/18 05:00:41;;;;;;;;;;;;;;;24.83;45.96;92781.63;5040293;28;7861;-60
2022/11/18 05:03:06;;;;;;;;;;;;;;;24.84;46.14;92794.06;5029969;28;7105;-61
2022/11/18 05:06:02;;;;;;;;;;;;;;;24.81;46.73;92794.44;5046411;28;7352;-60
2022/11/18 05:09:00;;;;;;;;;;;;;;;24.79;46.56;92800.50;5029383;28;7063;-61
2022/11/18 05:14:30;;;;;;;;;;;;;;;24.81;46.26;92797.19;4987542;28;7104;-61
2022/11/18 05:17:10;;;;;;;;;;;;;;;24.79;46.61;92808.00;4972357;28;7401;-60
2022/11/18 05:20:08;;;;;;;;;;;;;;;24.75;46.05;92804.88;4991032;28;7201;-61
2022/11/18 05:23:03;;;;;;;;;;;;;;;24.71;46.72;92816.91;4943269;28;7379;-61
2022/11/18 05:25:41;;;;;;;;;;;;;;;24.69;46.61;92813.97;4921361;29;8950;-60
2022/11/18 05:28:25;;;;;;;;;;;;;;;24.72;46.26;92817.66;4938526;28;7265;-61
2022/11/18 05:31:16;;;;;;;;;;;;;;;24.78;46.12;92820.25;4937238;28;7117;-60
2022/11/18 05:33:51;;;;;;;;;;;;;;;24.77;46.62;92819.53;4917581;28;8780;-60
2022/11/18 05:36:22;;;;;;;;;;;;;;;24.71;46.83;92819.66;4927818;28;7097;-61
2022/11/18 05:39:00;;;;;;;;;;;;;;;24.77;46.60;92821.56;4930010;28;8927;-61
2022/11/18 05:44:27;;;;;;;;;;;;;;;24.77;45.97;92824.31;4926692;29;7262;-62
2022/11/18 05:46:56;;;;;;;;;;;;;;;24.75;46.68;92826.88;4934698;28;9306;-61
2022/11/18 05:49:22;;;;;;;;;;;;;;;24.71;46.23;92833.41;4969761;28;7295;-61
2022/11/18 05:51:50;;;;;;;;;;;;;;;24.68;46.94;92845.47;4948991;28;9072;-61
2022/11/18 05:54:18;;;;;;;;;;;;;;;24.65;46.84;92848.59;4968975;28;9226;-61
2022/11/18 05:56:45;;;;;;;;;;;;;;;24.65;46.35;92852.06;4967095;28;7775;-61
2022/11/18 05:59:13;;;;;;;;;;;;;;;24.63;47.14;92854.63;4980184;28;10382;-61
2022/11/18 06:02:01;;;;;;;;;;;;;;;24.70;50.76;92862.19;5025027;28;9528;-61
2022/11/18 06:04:34;;;;;;;;;;;;;;;24.77;46.91;92863.53;5051353;28;9397;-61
2022/11/18 06:07:32;;;;;;;;;;;;;;;24.80;48.28;92870.69;5041678;28;7175;-61
2022/11/18 06:10:02;;;;;;;;;;;;;;;24.83;48.54;92861.38;5030706;28;8528;-60
2022/11/18 06:12:39;;;;;;;;;;;;;;;24.87;48.38;92872.75;5052992;28;7404;-61
2022/11/18 06:15:18;;;;;;;;;;;;;;;24.90;47.83;92873.69;5043185;28;9447;-61
2022/11/18 06:18:15;;;;;;;;;;;;;;;24.91;48.08;92886.16;5044422;28;7180;-61
2022/11/18 06:20:42;;;;;;;;;;;;;;;24.91;48.17;92889.63;5045101;28;7286;-61
2022/11/18 06:23:09;;;;;;;;;;;;;;;24.91;47.84;92895.13;5050530;28;7138;-61
2022/11/18 06:25:45;;;;;;;;;;;;;;;24.93;47.42;92902.84;5039025;28;7023;-61
2022/11/18 06:28:23;;;;;;;;;;;;;;;24.93;46.83;92909.09;5034988;28;7230;-61
2022/11/18 06:31:04;;;;;;;;;;;;;;;24.95;46.28;92914.03;5034397;28;6976;-61
2022/11/18 06:33:33;;;;;;;;;;;;;;;24.95;46.80;92922.28;5031217;28;10550;-61
2022/11/18 06:36:01;;;;;;;;;;;;;;;24.93;46.35;92930.34;5037102;28;9040;-61
2022/11/18 06:38:30;;;;;;;;;;;;;;;24.90;46.20;92932.19;5035864;28;7849;-61
2022/11/18 06:41:02;;;;;;;;;;;;;;;24.90;45.92;92943.19;5029376;28;7833;-61
2022/11/18 06:43:40;;;;;;;;;;;;;;;24.91;46.55;92952.91;5033398;28;7262;-61
2022/11/18 06:49:01;;;;;;;;;;;;;;;24.87;46.37;92960.75;5044281;28;7305;-61
2022/11/18 06:51:28;;;;;;;;;;;;;;;24.89;46.29;92963.69;5033804;28;9004;-61
2022/11/18 06:53:58;;;;;;;;;;;;;;;24.90;46.68;92967.19;5032990;28;7220;-61
2022/11/18 06:56:27;;;;;;;;;;;;;;;24.87;45.85;92973.75;5031838;28;7018;-61
2022/11/18 06:58:59;;;;;;;;;;;;;;;24.81;46.65;92967.69;5044781;28;7810;-61
2022/11/18 07:01:35;;;;;;;;;;;;;;;24.80;46.74;92977.19;5029283;28;7699;-61
2022/11/18 07:04:10;;;;;;;;;;;;;;;24.79;46.59;92981.22;5029213;28;6979;-61
2022/11/18 07:06:39;;;;;;;;;;;;;;;24.79;46.28;92983.97;5047884;28;7257;-61
2022/11/18 07:09:06;;;;;;;;;;;;;;;24.78;47.47;92986.00;5047377;28;9231;-61
2022/11/18 07:11:37;;;;;;;;;;;;;;;24.79;47.15;92986.72;5048340;28;7611;-61
2022/11/18 07:14:03;;;;;;;;;;;;;;;24.81;46.98;92998.66;5028533;28;7159;-61
2022/11/18 07:16:31;;;;;;;;;;;;;;;24.81;46.82;93006.19;5059251;28;7220;-62
2022/11/18 07:18:59;;;;;;;;;;;;;;;24.82;46.21;93010.38;5040982;28;7727;-62
2022/11/18 07:21:28;;;;;;;;;;;;;;;24.84;46.92;93013.34;5057268;28;9695;-62
2022/11/18 07:24:06;;;;;;;;;;;;;;;24.81;46.45;93014.41;5034962;28;7041;-61
2022/11/18 07:26:38;;;;;;;;;;;;;;;24.75;46.70;93011.09;5031828;28;10210;-61
2022/11/18 07:29:08;;;;;;;;;;;;;;;24.71;47.08;93019.63;5037212;28;7256;-61
2022/11/18 07:31:40;;;;;;;;;;;;;;;24.71;46.67;93025.88;5035735;28;7217;-61
2022/11/18 07:34:06;;;;;;;;;;;;;;;24.72;47.42;93032.09;5028710;28;9254;-61
2022/11/18 07:36:42;;;;;;;;;;;;;;;24.70;47.48;93029.91;5052832;28;6863;-62
2022/11/18 07:39:24;;;;;;;;;;;;;;;24.71;47.63;93036.88;5050499;28;7436;-61
2022/11/18 07:41:59;;;;;;;;;;;;;;;24.73;47.20;93043.84;5046135;28;7291;-61
2022/11/18 07:44:57;;;;;;;;;;;;;;;24.71;47.23;93045.13;5049564;28;8901;-61
2022/11/18 07:47:23;;;;;;;;;;;;;;;24.67;47.44;93046.72;4990746;28;7856;-61
2022/11/18 07:49:49;;;;;;;;;;;;;;;24.68;46.92;93059.22;4987941;28;7254;-61
2022/11/18 07:52:15;;;;;;;;;;;;;;;24.64;47.04;93054.03;4974317;28;7297;-61
2022/11/18 07:54:45;;;;;;;;;;;;;;;24.69;47.80;93058.66;4969096;28;7026;-61
2022/11/18 07:57:45;;;;;;;;;;;;;;;24.73;48.04;93061.06;4993632;28;7384;-62
2022/11/18 08:00:15;;;;;;;;;;;;;;;24.71;47.61;93067.09;4966362;28;7029;-62
2022/11/18 08:02:42;;;;;;;;;;;;;;;24.70;47.80;93068.41;4964976;28;7514;-62
2022/11/18 08:05:09;;;;;;;;;;;;;;;24.75;47.88;93068.81;4964561;28;7444;-61
2022/11/18 08:07:34;;;;;;;;;;;;;;;24.76;47.79;93070.28;4970310;28;7168;-61
2022/11/18 08:10:02;;;;;;;;;;;;;;;24.74;46.97;93070.81;4954043;28;9114;-61
2022/11/18 08:12:34;;;;;;;;;;;;;;;24.75;47.21;93075.03;4954006;28;7209;-62
2022/11/18 08:15:00;;;;;;;;;;;;;;;24.76;47.54;93075.78;4950254;28;7191;-62
2022/11/18 08:17:26;;;;;;;;;;;;;;;24.78;47.25;93078.72;4952343;28;7173;-61
2022/11/18 08:19:53;;;;;;;;;;;;;;;24.75;46.94;93080.53;4963106;28;9004;-61
2022/11/18 08:22:22;;;;;;;;;;;;;;;24.73;47.96;93077.56;4962053;28;7288;-61
2022/11/18 08:24:50;;;;;;;;;;;;;;;24.76;47.08;93081.28;5000529;28;8678;-62
2022/11/18 08:27:18;;;;;;;;;;;;;;;24.75;47.13;93080.53;4984384;28;7248;-61
2022/11/18 08:29:44;;;;;;;;;;;;;;;24.75;47.86;93085.31;4985103;28;7257;-61
2022/11/18 08:32:10;;;;;;;;;;;;;;;24.75;47.82;93088.06;4969452;28;7423;-61
2022/11/18 08:34:39;;;;;;;;;;;;;;;24.69;47.13;93083.41;4970643;28;8119;-61
2022/11/18 08:37:05;;;;;;;;;;;;;;;24.67;47.45;93090.72;5010593;28;9014;-61
2022/11/18 08:39:36;;;;;;;;;;;;;;;24.69;48.16;93094.41;5040440;28;7352;-61
2022/11/18 08:42:14;;;;;;;;;;;;;;;24.70;47.30;93098.66;5053210;28;7225;-61
2022/11/18 08:44:43;;;;;;;;;;;;;;;24.67;47.99;93088.69;5046543;28;7069;-61
2022/11/18 08:47:10;;;;;;;;;;;;;;;24.71;47.89;93094.59;5056645;28;7108;-61
2022/11/18 08:49:35;;;;;;;;;;;;;;;24.76;47.60;93095.03;5038393;28;9069;-61
2022/11/18 08:52:03;;;;;;;;;;;;;;;24.76;46.87;93103.28;5038432;28;7292;-61
2022/11/18 08:54:30;;;;;;;;;;;;;;;24.73;47.54;93103.06;5045689;28;7073;-61
2022/11/18 08:57:00;;;;;;;;;;;;;;;24.70;47.21;93100.66;5059843;28;7277;-61
2022/11/18 08:59:59;;;;;;;;;;;;;;;24.68;47.88;93103.19;5043689;28;8766;-61
2022/11/18 09:02:26;;;;;;;;;;;;;;;24.66;47.83;93111.97;5034212;28;9049;-61
2022/11/18 09:04:55;;;;;;;;;;;;;;;24.69;47.76;93110.91;5056090;28;7016;-61
2022/11/18 09:07:52;;;;;;;;;;;;;;;24.69;48.07;93104.66;5062169;28;7120;-61
2022/11/18 09:10:28;;;;;;;;;;;;;;;24.69;47.79;93107.41;4998580;28;7069;-61
2022/11/18 09:12:59;;;;;;;;;;;;;;;24.68;47.39;93106.66;5002656;28;7454;-61
2022/11/18 09:15:56;;;;;;;;;;;;;;;24.68;47.42;93114.19;5002438;28;7479;-61
2022/11/18 09:18:33;;;;;;;;;;;;;;;24.67;47.94;93109.97;4973032;28;9142;-61
2022/11/18 09:21:09;;;;;;;;;;;;;;;24.67;47.73;93113.44;4980684;28;9387;-61
2022/11/18 09:23:36;;;;;;;;;;;;;;;24.67;47.33;93113.44;4955878;28;7267;-60
2022/11/18 09:26:09;;;;;;;;;;;;;;;24.69;47.08;93121.91;4956597;28;7023;-61
2022/11/18 09:28:44;;;;;;;;;;;;;;;24.69;46.99;93124.66;4972217;28;7059;-61
2022/11/18 09:31:22;;;;;;;;;;;;;;;24.72;47.48;93120.09;4971966;28;6945;-61
2022/11/18 09:33:49;;;;;;;;;;;;;;;24.67;47.34;93124.44;4971987;28;7244;-62
2022/11/18 09:36:24;;;;;;;;;;;;;;;24.72;47.72;93128.34;4956071;28;7267;-61
2022/11/18 09:38:51;;;;;;;;;;;;;;;24.75;47.22;93129.31;4972173;28;9732;-62
2022/11/18 09:42:16;;;;;;;;;;;;;;;24.77;47.52;93129.53;4956062;28;7261;-61
2022/11/18 09:45:10;;;;;;;;;;;;;;;24.78;46.65;93134.47;4932900;29;7255;-61
2022/11/18 09:47:36;;;;;;;;;;;;;;;24.80;46.81;93142.19;4905171;29;7317;-61
2022/11/18 09:50:11;;;;;;;;;;;;;;;24.80;47.46;93136.69;4929648;29;7047;-61
2022/11/18 09:53:02;;;;;;;;;;;;;;;24.81;47.46;93136.16;4936442;28;7050;-60
2022/11/18 09:55:28;;;;;;;;;;;;;;;24.81;47.40;93147.16;4925199;29;7257;-61
2022/11/18 09:58:09;;;;;;;;;;;;;;;24.77;47.12;93140.53;4916543;29;7052;-60
2022/11/18 10:00:34;;;;;;;;;;;;;;;24.77;47.09;93141.25;4933175;29;7154;-61
2022/11/18 10:03:31;;;;;;;;;;;;;;;24.76;47.85;93144.53;4931558;29;6979;-61
2022/11/18 10:06:21;;;;;;;;;;;;;;;24.76;46.78;93150.78;4885255;29;8649;-61
2022/11/18 10:09:01;;;;;;;;;;;;;;;24.78;47.56;93161.97;4883165;29;7295;-61
2022/11/18 10:12:00;;;;;;;;;;;;;;;24.78;47.55;93148.22;4892642;29;7342;-61
2022/11/18 10:14:31;;;;;;;;;;;;;;;24.80;47.04;93153.19;4885565;29;9653;-61
2022/11/18 10:17:42;;;;;;;;;;;;;;;24.78;47.49;93153.72;4885937;29;7800;-61
2022/11/18 10:20:47;;;;;;;;;;;;;;;24.78;46.79;93155.72;4885793;29;8550;-61
2022/11/18 10:23:32;;;;;;;;;;;;;;;24.79;47.10;93151.72;4951101;28;7309;-61
2022/11/18 10:26:07;;;;;;;;;;;;;;;24.73;47.60;93158.03;4954682;28;9509;-61
2022/11/18 10:28:43;;;;;;;;;;;;;;;24.73;47.72;93155.28;4974769;28;8627;-61
2022/11/18 10:31:21;;;;;;;;;;;;;;;24.74;47.66;93150.53;4965074;28;7271;-60
2022/11/18 10:34:04;;;;;;;;;;;;;;;24.75;47.38;93156.81;4960776;28;9191;-60
2022/11/18 10:36:33;;;;;;;;;;;;;;;24.79;46.84;93154.47;4953307;28;7289;-61
2022/11/18 10:39:13;;;;;;;;;;;;;;;24.79;46.93;93154.47;4976346;28;7099;-61
2022/11/18 10:41:47;;;;;;;;;;;;;;;24.79;47.41;93157.22;4984626;28;8915;-60
2022/11/18 10:44:40;;;;;;;;;;;;;;;24.77;46.69;93160.50;5050183;28;10372;-60
2022/11/18 10:47:33;;;;;;;;;;;;;;;24.76;47.49;93158.28;5041604;28;10095;-60
2022/11/18 10:50:30;;;;;;;;;;;;;;;24.73;47.52;93160.78;5024442;28;7217;-60
2022/11/18 10:52:58;;;;;;;;;;;;;;;24.73;46.90;93159.34;5032559;28;7396;-60
2022/11/18 10:55:29;;;;;;;;;;;;;;;24.75;47.43;93163.03;5057769;28;8236;-60
2022/11/18 10:58:17;;;;;;;;;;;;;;;24.73;47.04;93160.78;5032031;28;8220;-60
2022/11/18 11:00:48;;;;;;;;;;;;;;;24.71;47.56;93160.59;5029951;28;7346;-60
2022/11/18 11:03:21;;;;;;;;;;;;;;;24.70;47.05;93158.38;5048763;28;7213;-60
2022/11/18 11:06:41;;;;;;;;;;;;;;;24.69;47.61;93160.38;5056035;28;7177;-60
2022/11/18 11:09:26;;;;;;;;;;;;;;;24.67;48.15;93168.44;4957752;28;7679;-60
2022/11/18 11:12:13;;;;;;;;;;;;;;;24.66;47.93;93164.19;4950462;28;7353;-60
2022/11/18 11:14:52;;;;;;;;;;;;;;;24.69;47.88;93173.41;4954398;28;8380;-61
2022/11/18 11:17:23;;;;;;;;;;;;;;;24.67;48.46;93165.69;4973466;28;7284;-61
2022/11/18 11:20:15;;;;;;;;;;;;;;;24.68;48.39;93169.91;4968759;28;7358;-61
2022/11/18 11:22:44;;;;;;;;;;;;;;;24.69;48.17;93165.88;4969674;28;9444;-61
2022/11/18 11:25:27;;;;;;;;;;;;;;;24.68;48.22;93167.16;4964208;28;7048;-61
2022/11/18 11:28:07;;;;;;;;;;;;;;;24.69;48.20;93171.38;4969984;28;7042;-61
2022/11/18 11:30:49;;;;;;;;;;;;;;;24.69;48.38;93176.88;4967264;28;7314;-61
2022/11/18 11:33:34;;;;;;;;;;;;;;;24.71;48.36;93176.34;4948393;28;8972;-61
2022/11/18 11:36:43;;;;;;;;;;;;;;;24.71;48.77;93179.84;4953947;28;7555;-61
2022/11/18 11:39:49;;;;;;;;;;;;;;;24.69;47.81;93176.16;4950065;28;9564;-61
2022/11/18 11:42:52;;;;;;;;;;;;;;;24.68;47.80;93185.69;4936546;29;7136;-61
2022/11/18 11:45:29;;;;;;;;;;;;;;;24.67;47.73;93182.19;5015167;28;7533;-61
2022/11/18 11:48:17;;;;;;;;;;;;;;;24.65;47.94;93181.97;5065133;28;7701;-61
2022/11/18 11:50:59;;;;;;;;;;;;;;;24.67;47.78;93181.44;5055206;28;7246;-62
2022/11/18 11:54:01;;;;;;;;;;;;;;;24.68;48.66;93189.16;5034368;28;7439;-62
2022/11/18 11:56:49;;;;;;;;;;;;;;;24.73;47.53;93188.28;5058616;28;7061;-61
2022/11/18 11:59:26;;;;;;;;;;;;;;;24.70;47.34;93189.38;5026602;28;7221;-61
2022/11/18 12:02:27;;;;;;;;;;;;;;;24.69;47.46;93187.13;5038707;28;7337;-61
2022/11/18 12:05:26;;;;;;;;;;;;;;;24.69;48.25;93193.38;5043982;28;7289;-61
2022/11/18 12:07:58;;;;;;;;;;;;;;;24.70;47.38;93194.88;5044786;28;7264;-62
2022/11/18 12:11:03;;;;;;;;;;;;;;;24.68;47.42;93202.88;5052821;28;9556;-61
2022/11/18 12:13:54;;;;;;;;;;;;;;;24.67;48.14;93209.69;5057282;28;6996;-61
2022/11/18 12:17:04;;;;;;;;;;;;;;;24.67;47.42;93195.94;5054707;28;7545;-61
2022/11/18 12:19:42;;;;;;;;;;;;;;;24.66;48.23;93208.19;5032362;28;7031;-60
2022/11/18 12:22:17;;;;;;;;;;;;;;;24.66;48.14;93213.69;5058929;28;8404;-61
2022/11/18 12:24:43;;;;;;;;;;;;;;;24.69;47.47;93206.38;5036210;28;9706;-60
2022/11/18 12:27:35;;;;;;;;;;;;;;;24.71;48.32;93212.09;5050554;28;9067;-60
2022/11/18 12:30:28;;;;;;;;;;;;;;;24.77;47.96;93209.25;5039321;28;9041;-60
2022/11/18 12:33:03;;;;;;;;;;;;;;;24.80;47.43;93213.69;5048887;28;7036;-60
2022/11/18 12:35:31;;;;;;;;;;;;;;;24.77;47.66;93210.00;5020578;28;7115;-61
2022/11/18 12:38:02;;;;;;;;;;;;;;;24.76;47.79;93213.28;5033459;28;7150;-60
2022/11/18 12:40:40;;;;;;;;;;;;;;;24.76;47.21;93207.78;5041001;28;7017;-60
2022/11/18 12:43:47;;;;;;;;;;;;;;;24.77;47.63;93212.00;5054111;28;7025;-60
2022/11/18 12:46:34;;;;;;;;;;;;;;;24.76;47.68;93207.78;5001070;28;7301;-60
2022/11/18 12:49:23;;;;;;;;;;;;;;;24.76;47.81;93203.03;5008900;28;7533;-60
2022/11/18 12:51:51;;;;;;;;;;;;;;;24.76;47.44;93196.78;5002453;28;7407;-60
2022/11/18 12:54:23;;;;;;;;;;;;;;;24.73;47.78;93199.28;5012508;28;8671;-60
2022/11/18 12:56:49;;;;;;;;;;;;;;;24.75;47.02;93196.03;4994385;28;7131;-60
2022/11/18 12:59:49;;;;;;;;;;;;;;;24.73;47.04;93191.03;5009931;28;9549;-60
2022/11/18 13:02:52;;;;;;;;;;;;;;;24.73;47.71;93192.31;4972625;28;7602;-60
2022/11/18 13:05:33;;;;;;;;;;;;;;;24.74;47.08;93186.28;4953152;28;7056;-60
2022/11/18 13:08:13;;;;;;;;;;;;;;;24.74;47.86;93191.78;4953702;28;7227;-60
2022/11/18 13:19:34;;;;;;;;;;;;;;;24.77;47.86;93184.50;4880772;29;7105;-61
2022/11/18 13:24:50;;;;;;;;;;;;;;;24.74;47.36;93200.03;4873298;29;9040;-61
2022/11/18 13:27:48;;;;;;;;;;;;;;;24.78;47.08;93205.97;4893082;29;7615;-62
2022/11/18 13:30:26;;;;;;;;;;;;;;;24.79;47.60;93184.72;4852729;29;8907;-61
2022/11/18 13:32:57;;;;;;;;;;;;;;;24.77;47.50;93195.50;4885187;29;7319;-61
2022/11/18 13:35:28;;;;;;;;;;;;;;;24.77;47.78;93188.00;4872284;29;7160;-61
2022/11/18 13:37:59;;;;;;;;;;;;;;;24.77;47.17;93181.75;4904278;29;7356;-61
2022/11/18 13:41:12;;;;;;;;;;;;;;;24.81;47.57;93184.91;4909218;28;8581;-61
2022/11/18 13:43:39;;;;;;;;;;;;;;;24.81;47.37;93179.41;4986353;28;7109;-61
2022/11/18 13:46:18;;;;;;;;;;;;;;;24.79;47.79;93168.97;4982252;28;9043;-62
2022/11/18 13:48:57;;;;;;;;;;;;;;;24.79;46.99;93179.97;4983211;28;7080;-61
2022/11/18 13:51:25;;;;;;;;;;;;;;;24.80;46.78;93186.19;5004530;28;7358;-61
2022/11/18 13:53:51;;;;;;;;;;;;;;;24.79;46.95;93190.22;4991577;28;8538;-61
2022/11/18 13:56:29;;;;;;;;;;;;;;;24.79;47.00;93184.72;5003104;28;7187;-61
2022/11/18 13:59:01;;;;;;;;;;;;;;;24.77;47.62;93182.50;4993744;28;7211;-61
2022/11/18 14:01:58;;;;;;;;;;;;;;;24.77;47.81;93174.25;4987105;28;9184;-61
2022/11/18 14:04:34;;;;;;;;;;;;;;;24.83;47.23;93179.63;4981585;28;7003;-61
2022/11/18 14:07:24;;;;;;;;;;;;;;;24.87;47.19;93191.03;5011781;28;7188;-61
2022/11/18 14:10:14;;;;;;;;;;;;;;;24.90;46.71;93198.22;4991081;28;6966;-61
2022/11/18 14:13:00;;;;;;;;;;;;;;;24.89;46.99;93211.22;4989606;28;9431;-61
2022/11/18 14:15:36;;;;;;;;;;;;;;;24.91;46.86;93210.69;4990735;28;8965;-61
2022/11/18 14:18:17;;;;;;;;;;;;;;;24.91;46.44;93213.44;5014407;28;7225;-61
2022/11/18 14:20:54;;;;;;;;;;;;;;;24.90;46.55;93211.97;4988390;28;7230;-61
2022/11/18 14:23:43;;;;;;;;;;;;;;;24.93;46.06;93210.88;4999971;28;7129;-61
2022/11/18 14:26:09;;;;;;;;;;;;;;;24.91;46.81;93205.19;4989025;28;7260;-61
2022/11/18 14:28:37;;;;;;;;;;;;;;;24.91;45.90;93202.44;4989798;28;9080;-60
2022/11/18 14:31:17;;;;;;;;;;;;;;;24.91;45.92;93205.94;5003825;28;7375;-60
2022/11/18 14:34:04;;;;;;;;;;;;;;;24.92;45.61;93210.16;4991436;28;6993;-60
2022/11/18 14:36:42;;;;;;;;;;;;;;;24.95;45.44;93209.09;4993856;28;9574;-60